Terminal Aerodrome Forecast
Issued by NWS

Home | Current Version | Previous Version | Text Only | Print | Product List | Glossary On
Versions: 1 2 3 4 5 6 7 8 9 10 11 12 13 14 15 16 17 18 19 20 21 22 23 24 25 26 27 28 29 30 31 32 33 34 35 36 37 38 39
000
FTUS45 KSLC 250534
TAF36U
TAF
K36U 250534Z 2506/2606 36007KT P6SM VCSH SCT040 BKN070
      TEMPO 2506/2508 -RA BKN040 OVC070
     FM250800 VRB04KT P6SM SCT060 BKN080
     FM251900 23009KT P6SM FEW070 SCT090=

USA.gov is the U.S. government's official web portal to all federal, state and local government web resources and services.